Time;durP1;ratioP1;P1;durP2;ratioP2;P2;SDS_P1;SDS_P2;PMS_P1;PMS_P2;Temp;Humidity;BMP_temperature;BMP_pressure;BME280_temperature;BME280_humidity;BME280_pressure;Samples;Min_cycle;Max_cycle;Signal;HPM_P1;HPM_P2
2021/12/10 00:00:22;;;;;;;10.45;4.72;;;;;;;;;;5078697;28;20222;-82
2021/12/10 00:02:48;;;;;;;8.82;4.35;;;;;;;;;;5097116;28;20175;-82
2021/12/10 00:05:17;;;;;;;9.60;4.70;;;;;;;;;;5078697;28;20179;-82
2021/12/10 00:07:44;;;;;;;7.63;5.35;;;;;;;;;;5078795;28;20834;-82
2021/12/10 00:10:15;;;;;;;5.97;4.75;;;;;;;;;;5096660;28;20183;-81
2021/12/10 00:12:45;;;;;;;14.93;5.25;;;;;;;;;;5078173;28;20245;-81
2021/12/10 00:15:12;;;;;;;6.22;4.45;;;;;;;;;;5096689;28;20240;-80
2021/12/10 00:17:38;;;;;;;10.77;5.18;;;;;;;;;;5096812;28;20267;-81
2021/12/10 00:20:05;;;;;;;9.02;5.85;;;;;;;;;;5078582;28;20211;-80
2021/12/10 00:22:38;;;;;;;7.68;4.68;;;;;;;;;;5078604;28;20179;-82
2021/12/10 00:25:07;;;;;;;10.05;5.97;;;;;;;;;;5078843;28;20637;-82
2021/12/10 00:27:33;;;;;;;8.15;5.07;;;;;;;;;;5096627;28;20197;-81
2021/12/10 00:30:05;;;;;;;8.60;5.78;;;;;;;;;;5078497;28;20186;-81
2021/12/10 00:32:35;;;;;;;8.43;4.82;;;;;;;;;;5096582;28;20184;-82
2021/12/10 00:35:03;;;;;;;7.22;4.47;;;;;;;;;;5097112;28;20159;-82
2021/12/10 00:37:29;;;;;;;8.90;3.67;;;;;;;;;;5078276;28;20290;-81
2021/12/10 00:39:57;;;;;;;5.68;3.78;;;;;;;;;;5096254;28;20175;-83
2021/12/10 00:42:25;;;;;;;6.85;5.20;;;;;;;;;;5078203;28;20177;-80
2021/12/10 00:44:51;;;;;;;5.13;3.85;;;;;;;;;;5078129;28;20176;-84
2021/12/10 00:47:17;;;;;;;6.10;3.80;;;;;;;;;;5096499;28;20623;-82
2021/12/10 00:49:43;;;;;;;5.90;3.88;;;;;;;;;;5077125;28;20670;-81
2021/12/10 00:52:10;;;;;;;7.03;4.20;;;;;;;;;;5096241;28;20195;-82
2021/12/10 00:54:37;;;;;;;4.40;3.42;;;;;;;;;;5095986;28;20179;-82
2021/12/10 00:57:04;;;;;;;7.63;4.20;;;;;;;;;;5095728;28;20202;-81
2021/12/10 00:59:30;;;;;;;7.10;4.05;;;;;;;;;;5095384;28;20195;-81
2021/12/10 01:01:56;;;;;;;6.83;4.37;;;;;;;;;;5095540;28;20200;-82
2021/12/10 01:04:26;;;;;;;8.38;4.00;;;;;;;;;;5095738;28;20416;-82
2021/12/10 01:06:52;;;;;;;4.22;3.58;;;;;;;;;;5095603;28;20172;-82
2021/12/10 01:09:20;;;;;;;5.25;3.05;;;;;;;;;;5095477;28;20264;-81
2021/12/10 01:11:50;;;;;;;5.90;3.88;;;;;;;;;;5077057;28;20205;-81
2021/12/10 01:14:23;;;;;;;9.57;3.90;;;;;;;;;;5095676;28;20171;-82
2021/12/10 01:25:23;;;;;;;8.52;3.83;;;;;;;;;;5095649;28;20545;-83
2021/12/10 01:27:49;;;;;;;10.88;4.03;;;;;;;;;;5077334;28;20194;-83
2021/12/10 01:30:18;;;;;;;9.15;3.35;;;;;;;;;;5094651;28;20207;-82
2021/12/10 01:32:49;;;;;;;6.47;3.95;;;;;;;;;;5095438;28;20187;-83
2021/12/10 01:35:17;;;;;;;5.65;3.30;;;;;;;;;;5095165;28;20516;-82
2021/12/10 01:37:43;;;;;;;5.00;3.42;;;;;;;;;;5095031;28;20214;-82
2021/12/10 01:40:09;;;;;;;8.90;3.15;;;;;;;;;;5094479;28;20251;-82
2021/12/10 01:42:48;;;;;;;7.35;3.10;;;;;;;;;;5095055;28;20183;-83
2021/12/10 01:45:21;;;;;;;6.60;3.30;;;;;;;;;;5094990;28;20172;-82
2021/12/10 01:47:49;;;;;;;3.85;3.40;;;;;;;;;;5094819;28;20697;-82
2021/12/10 01:50:15;;;;;;;6.43;2.60;;;;;;;;;;5076016;28;20283;-81
2021/12/10 01:52:41;;;;;;;7.60;2.78;;;;;;;;;;5094748;28;20175;-83
2021/12/10 01:55:07;;;;;;;13.05;3.30;;;;;;;;;;5094685;28;20178;-81
2021/12/10 01:57:35;;;;;;;5.82;3.17;;;;;;;;;;5094514;28;20199;-81
2021/12/10 02:00:02;;;;;;;4.68;2.75;;;;;;;;;;5094119;28;20172;-80
2021/12/10 02:02:31;;;;;;;7.40;3.17;;;;;;;;;;5094591;28;20171;-80
2021/12/10 02:04:57;;;;;;;8.85;3.65;;;;;;;;;;5094520;28;20171;-82
2021/12/10 02:07:24;;;;;;;6.22;2.70;;;;;;;;;;5094362;28;20176;-81
2021/12/10 02:09:51;;;;;;;9.85;3.00;;;;;;;;;;5094146;28;20172;-83
2021/12/10 02:12:18;;;;;;;8.13;2.55;;;;;;;;;;5094260;28;20237;-82
2021/12/10 02:14:45;;;;;;;6.50;2.70;;;;;;;;;;5094409;28;20576;-83
2021/12/10 02:17:11;;;;;;;4.60;2.90;;;;;;;;;;5094448;28;20202;-81
2021/12/10 02:19:38;;;;;;;6.10;2.10;;;;;;;;;;5094263;28;20179;-81
2021/12/10 02:22:05;;;;;;;5.63;2.10;;;;;;;;;;5094067;28;20289;-81
2021/12/10 02:24:31;;;;;;;9.05;2.88;;;;;;;;;;5094156;28;20182;-82
2021/12/10 02:26:59;;;;;;;10.70;2.88;;;;;;;;;;5076136;28;20266;-82
2021/12/10 02:29:26;;;;;;;6.18;2.42;;;;;;;;;;5093760;28;20187;-82
2021/12/10 02:31:56;;;;;;;5.13;2.13;;;;;;;;;;5075790;28;20210;-82
2021/12/10 02:34:23;;;;;;;4.82;2.45;;;;;;;;;;5093975;28;20180;-82
2021/12/10 02:36:49;;;;;;;10.40;2.42;;;;;;;;;;5075732;28;20290;-81
2021/12/10 02:39:17;;;;;;;9.30;2.20;;;;;;;;;;5093624;28;20232;-82
2021/12/10 02:41:43;;;;;;;6.60;2.20;;;;;;;;;;5093581;28;20197;-81
2021/12/10 02:44:12;;;;;;;12.82;1.98;;;;;;;;;;5093940;28;20173;-81
2021/12/10 02:46:38;;;;;;;4.90;1.80;;;;;;;;;;5093707;28;20264;-83
2021/12/10 02:49:05;;;;;;;8.27;2.17;;;;;;;;;;5093802;28;20211;-81
2021/12/10 02:51:32;;;;;;;3.65;1.70;;;;;;;;;;5093424;28;20202;-79
2021/12/10 02:53:59;;;;;;;8.50;2.10;;;;;;;;;;5093761;28;20576;-81
2021/12/10 02:56:25;;;;;;;11.63;2.53;;;;;;;;;;5093493;28;20179;-82
2021/12/10 02:58:54;;;;;;;5.20;1.50;;;;;;;;;;5093463;28;20509;-82
2021/12/10 03:01:35;;;;;;;5.50;1.98;;;;;;;;;;5093162;28;20422;-82
2021/12/10 03:04:01;;;;;;;5.72;1.48;;;;;;;;;;5093444;28;20171;-81
2021/12/10 03:06:28;;;;;;;5.80;1.75;;;;;;;;;;5093474;28;20175;-80
2021/12/10 03:08:55;;;;;;;6.65;1.95;;;;;;;;;;5093346;28;20224;-81
2021/12/10 03:11:25;;;;;;;4.70;1.35;;;;;;;;;;5093036;28;20199;-82
2021/12/10 03:13:51;;;;;;;5.50;2.00;;;;;;;;;;5093040;28;20174;-81
2021/12/10 03:16:17;;;;;;;4.40;1.23;;;;;;;;;;5093493;28;20679;-81
2021/12/10 03:18:43;;;;;;;7.43;2.03;;;;;;;;;;5093347;28;20178;-82
2021/12/10 03:21:09;;;;;;;8.25;2.20;;;;;;;;;;5092953;28;20194;-82
2021/12/10 03:23:42;;;;;;;9.68;2.10;;;;;;;;;;5093388;28;20253;-81
2021/12/10 03:26:08;;;;;;;2.53;1.63;;;;;;;;;;5093279;28;20167;-82
2021/12/10 03:28:34;;;;;;;6.15;1.80;;;;;;;;;;5093190;28;20183;-82
2021/12/10 03:31:00;;;;;;;17.20;2.00;;;;;;;;;;5092660;28;20632;-81
2021/12/10 03:33:26;;;;;;;10.43;1.67;;;;;;;;;;5093258;28;20417;-82
2021/12/10 03:35:52;;;;;;;5.88;1.77;;;;;;;;;;5093127;28;20542;-81
2021/12/10 03:38:21;;;;;;;6.55;1.70;;;;;;;;;;5075252;28;20676;-81
2021/12/10 03:40:47;;;;;;;3.22;1.52;;;;;;;;;;5092609;28;20686;-81
2021/12/10 03:43:14;;;;;;;10.02;1.80;;;;;;;;;;5092946;28;20688;-82
2021/12/10 03:45:45;;;;;;;5.97;1.60;;;;;;;;;;5093217;28;20199;-82
2021/12/10 03:48:13;;;;;;;8.25;2.70;;;;;;;;;;5093176;28;20175;-82
2021/12/10 03:50:40;;;;;;;2.50;1.60;;;;;;;;;;5092650;28;20276;-81
2021/12/10 03:53:06;;;;;;;8.00;1.90;;;;;;;;;;5092896;28;20182;-82
2021/12/10 03:55:32;;;;;;;6.22;1.52;;;;;;;;;;5075111;28;20270;-82
2021/12/10 03:57:58;;;;;;;4.00;2.33;;;;;;;;;;5092881;28;20660;-81
2021/12/10 04:00:26;;;;;;;7.10;1.55;;;;;;;;;;5092600;28;20223;-80
2021/12/10 04:02:52;;;;;;;4.50;1.35;;;;;;;;;;5092884;28;20207;-81
2021/12/10 04:05:19;;;;;;;8.73;2.00;;;;;;;;;;5092885;28;20178;-82
2021/12/10 04:07:45;;;;;;;3.85;1.63;;;;;;;;;;5092823;28;20182;-81
2021/12/10 04:10:12;;;;;;;5.40;2.00;;;;;;;;;;5092456;28;20273;-82
2021/12/10 04:12:38;;;;;;;16.38;3.10;;;;;;;;;;5092667;28;20616;-81
2021/12/10 04:15:05;;;;;;;4.93;1.70;;;;;;;;;;5074514;28;20183;-82
2021/12/10 04:17:32;;;;;;;9.20;2.08;;;;;;;;;;5092612;28;20270;-82
2021/12/10 04:19:58;;;;;;;6.35;1.75;;;;;;;;;;5092488;28;20176;-81
2021/12/10 04:22:28;;;;;;;5.28;1.17;;;;;;;;;;5092793;28;20168;-81
2021/12/10 04:24:54;;;;;;;4.75;2.05;;;;;;;;;;5093904;28;20199;-81
2021/12/10 04:27:20;;;;;;;7.90;2.00;;;;;;;;;;5096617;28;20214;-81
2021/12/10 04:29:47;;;;;;;9.13;1.77;;;;;;;;;;5096076;28;20180;-80
2021/12/10 04:32:14;;;;;;;7.03;1.67;;;;;;;;;;5096071;28;20199;-80
2021/12/10 04:34:40;;;;;;;10.80;1.50;;;;;;;;;;5096443;28;20172;-81
2021/12/10 04:37:07;;;;;;;15.82;1.77;;;;;;;;;;5096101;28;20672;-81
2021/12/10 04:39:34;;;;;;;4.32;1.58;;;;;;;;;;5095856;28;20179;-81
2021/12/10 04:42:01;;;;;;;11.20;1.67;;;;;;;;;;5096354;28;20218;-81
2021/12/10 04:44:27;;;;;;;10.65;2.13;;;;;;;;;;5096327;28;20182;-81
2021/12/10 04:46:53;;;;;;;5.88;1.75;;;;;;;;;;5078068;28;20179;-81
2021/12/10 04:49:19;;;;;;;11.43;2.23;;;;;;;;;;5095586;28;20176;-81
2021/12/10 04:51:48;;;;;;;5.65;1.70;;;;;;;;;;5095986;28;20525;-82
2021/12/10 04:54:14;;;;;;;6.95;1.60;;;;;;;;;;5095996;28;20179;-81
2021/12/10 04:56:40;;;;;;;4.90;1.75;;;;;;;;;;5095933;28;20192;-81
2021/12/10 04:59:08;;;;;;;9.88;2.05;;;;;;;;;;5095783;28;20175;-82
2021/12/10 05:01:35;;;;;;;5.53;2.20;;;;;;;;;;5077225;28;20222;-82
2021/12/10 05:04:02;;;;;;;6.45;2.13;;;;;;;;;;5095782;28;20244;-81
2021/12/10 05:06:28;;;;;;;10.82;2.70;;;;;;;;;;5095673;28;20168;-81
2021/12/10 05:08:54;;;;;;;11.60;2.95;;;;;;;;;;5095623;28;20171;-81
2021/12/10 05:11:20;;;;;;;4.75;2.40;;;;;;;;;;5095178;28;20192;-81
2021/12/10 05:13:48;;;;;;;6.90;2.67;;;;;;;;;;5095292;28;20211;-80
2021/12/10 05:16:15;;;;;;;11.13;2.80;;;;;;;;;;5095392;28;20589;-81
2021/12/10 05:18:44;;;;;;;7.72;3.00;;;;;;;;;;5095490;28;20240;-81
2021/12/10 05:21:12;;;;;;;10.38;3.00;;;;;;;;;;5095156;28;20595;-81
2021/12/10 05:23:38;;;;;;;7.30;2.90;;;;;;;;;;5095190;28;20186;-80
2021/12/10 05:26:05;;;;;;;7.38;2.65;;;;;;;;;;5077239;28;20187;-80
2021/12/10 05:28:31;;;;;;;9.15;3.35;;;;;;;;;;5095143;28;20260;-81
2021/12/10 05:30:59;;;;;;;8.68;3.53;;;;;;;;;;5094751;28;20644;-80
2021/12/10 05:33:26;;;;;;;12.65;4.70;;;;;;;;;;5095275;28;20247;-80
2021/12/10 05:35:52;;;;;;;13.55;5.82;;;;;;;;;;5094638;28;20183;-81
2021/12/10 05:38:19;;;;;;;9.23;5.05;;;;;;;;;;5094992;28;20669;-80
2021/12/10 05:40:47;;;;;;;7.63;5.03;;;;;;;;;;5076354;28;20297;-81
2021/12/10 05:43:13;;;;;;;11.10;5.45;;;;;;;;;;5095135;28;20167;-80
2021/12/10 05:45:39;;;;;;;13.30;5.00;;;;;;;;;;5095006;28;20525;-80
2021/12/10 05:48:06;;;;;;;9.07;4.70;;;;;;;;;;5095016;28;20201;-80
2021/12/10 05:50:32;;;;;;;11.30;4.97;;;;;;;;;;5094373;28;20624;-81
2021/12/10 05:52:58;;;;;;;14.15;5.63;;;;;;;;;;5094874;28;20190;-79
2021/12/10 05:55:25;;;;;;;12.40;5.63;;;;;;;;;;5094652;28;20178;-81
2021/12/10 05:57:52;;;;;;;13.05;6.20;;;;;;;;;;5094470;28;20246;-81
2021/12/10 06:00:20;;;;;;;8.05;5.95;;;;;;;;;;5076045;28;20206;-81
2021/12/10 06:02:46;;;;;;;11.77;5.68;;;;;;;;;;5094636;28;20168;-81
2021/12/10 06:05:12;;;;;;;15.95;6.55;;;;;;;;;;5094601;28;20237;-80
2021/12/10 06:07:38;;;;;;;13.82;7.03;;;;;;;;;;5094502;28;20544;-81
2021/12/10 06:10:05;;;;;;;11.20;6.20;;;;;;;;;;5093927;28;20204;-80
2021/12/10 06:12:31;;;;;;;13.75;6.03;;;;;;;;;;5094356;28;20195;-80
2021/12/10 06:14:57;;;;;;;11.25;6.07;;;;;;;;;;5094233;28;20185;-79
2021/12/10 06:17:24;;;;;;;9.07;4.70;;;;;;;;;;5094234;28;20231;-80
2021/12/10 06:19:50;;;;;;;12.93;5.68;;;;;;;;;;5075562;28;20266;-80
2021/12/10 06:22:16;;;;;;;9.27;5.20;;;;;;;;;;5094023;28;20202;-81
2021/12/10 06:24:42;;;;;;;15.38;5.43;;;;;;;;;;5094024;28;20180;-81
2021/12/10 06:27:08;;;;;;;11.35;5.45;;;;;;;;;;5094022;28;20179;-80
2021/12/10 06:29:36;;;;;;;12.80;4.30;;;;;;;;;;5093718;28;20537;-81
2021/12/10 06:32:02;;;;;;;11.10;4.57;;;;;;;;;;5094518;28;20218;-81
2021/12/10 06:34:28;;;;;;;14.38;5.22;;;;;;;;;;5094608;28;20209;-80
2021/12/10 06:36:54;;;;;;;9.30;4.13;;;;;;;;;;5093663;28;20248;-80
2021/12/10 06:39:20;;;;;;;11.32;4.53;;;;;;;;;;5093759;28;20175;-80
2021/12/10 06:41:53;;;;;;;11.30;4.60;;;;;;;;;;5093743;28;20187;-81
2021/12/10 06:44:19;;;;;;;12.48;4.38;;;;;;;;;;5093937;28;20164;-80
2021/12/10 06:46:46;;;;;;;7.82;4.15;;;;;;;;;;5093430;28;20183;-82
2021/12/10 06:49:12;;;;;;;6.57;3.28;;;;;;;;;;5092957;28;20263;-80
2021/12/10 06:51:38;;;;;;;11.40;4.07;;;;;;;;;;5093575;28;20195;-80
2021/12/10 06:54:05;;;;;;;9.63;3.40;;;;;;;;;;5075430;28;20187;-80
2021/12/10 06:56:33;;;;;;;16.83;3.60;;;;;;;;;;5093476;28;20179;-80
2021/12/10 06:58:59;;;;;;;8.02;4.10;;;;;;;;;;5093603;28;20572;-80
2021/12/10 07:01:27;;;;;;;12.50;3.80;;;;;;;;;;5093074;28;20679;-81
2021/12/10 07:03:54;;;;;;;8.88;3.70;;;;;;;;;;5093399;28;20174;-79
2021/12/10 07:06:21;;;;;;;11.07;3.85;;;;;;;;;;5093450;28;20179;-81
2021/12/10 07:08:48;;;;;;;8.45;2.80;;;;;;;;;;5093312;28;20196;-81
2021/12/10 07:11:16;;;;;;;5.05;2.75;;;;;;;;;;5087610;28;20234;-80
2021/12/10 07:13:43;;;;;;;13.65;3.40;;;;;;;;;;5092935;28;20539;-80
2021/12/10 07:16:09;;;;;;;7.38;3.30;;;;;;;;;;5093311;28;20167;-80
2021/12/10 07:18:36;;;;;;;8.40;3.50;;;;;;;;;;5075278;28;20206;-79
2021/12/10 07:21:02;;;;;;;6.20;3.00;;;;;;;;;;5093020;28;20645;-80
2021/12/10 07:23:28;;;;;;;12.48;3.65;;;;;;;;;;5093535;28;20540;-79
2021/12/10 07:25:55;;;;;;;9.65;3.00;;;;;;;;;;5093198;28;20176;-80
2021/12/10 07:28:21;;;;;;;8.00;3.55;;;;;;;;;;5093356;28;20258;-81
2021/12/10 07:30:47;;;;;;;9.68;2.85;;;;;;;;;;5074573;28;20376;-80
2021/12/10 07:33:14;;;;;;;5.22;2.22;;;;;;;;;;5093410;28;20175;-80
2021/12/10 07:35:40;;;;;;;6.70;2.47;;;;;;;;;;5093216;28;20204;-80
2021/12/10 07:38:07;;;;;;;6.63;2.67;;;;;;;;;;5093094;28;20207;-78
2021/12/10 07:40:34;;;;;;;7.28;2.38;;;;;;;;;;5092620;28;20192;-78
2021/12/10 07:43:00;;;;;;;7.35;2.40;;;;;;;;;;5074907;28;20618;-78
2021/12/10 07:45:27;;;;;;;4.18;2.55;;;;;;;;;;5093152;28;20175;-80
2021/12/10 07:47:54;;;;;;;5.00;1.80;;;;;;;;;;5093165;28;20179;-78
2021/12/10 07:50:23;;;;;;;4.47;1.70;;;;;;;;;;5092767;28;20210;-82
2021/12/10 07:52:54;;;;;;;8.00;2.10;;;;;;;;;;5093019;28;20175;-81
2021/12/10 07:55:21;;;;;;;4.85;1.67;;;;;;;;;;5093127;28;20266;-82
2021/12/10 07:57:50;;;;;;;4.95;1.95;;;;;;;;;;5092866;28;20213;-80
2021/12/10 08:00:17;;;;;;;3.88;2.55;;;;;;;;;;5096224;28;20185;-80
2021/12/10 08:02:44;;;;;;;6.53;1.60;;;;;;;;;;5097028;28;20507;-81
2021/12/10 08:05:10;;;;;;;8.02;2.00;;;;;;;;;;5096799;28;20184;-79
2021/12/10 08:07:36;;;;;;;6.65;2.00;;;;;;;;;;5094564;28;20176;-80
2021/12/10 08:10:04;;;;;;;5.60;1.85;;;;;;;;;;5081746;28;20241;-79
2021/12/10 08:12:30;;;;;;;7.75;2.08;;;;;;;;;;5074704;28;20300;-81
2021/12/10 08:14:56;;;;;;;5.80;2.30;;;;;;;;;;5074337;28;20238;-82
2021/12/10 08:17:23;;;;;;;3.40;1.90;;;;;;;;;;5074504;28;20673;-78
2021/12/10 08:19:50;;;;;;;5.45;2.47;;;;;;;;;;5074749;28;20415;-82
2021/12/10 08:22:17;;;;;;;4.88;2.30;;;;;;;;;;5056035;28;20206;-81
2021/12/10 08:24:52;;;;;;;4.90;1.90;;;;;;;;;;5074512;28;20558;-80
2021/12/10 08:27:18;;;;;;;13.27;3.17;;;;;;;;;;5074454;28;20638;-80
2021/12/10 08:29:45;;;;;;;11.82;2.63;;;;;;;;;;5072669;28;20298;-80
2021/12/10 08:32:15;;;;;;;10.77;2.67;;;;;;;;;;5074187;28;20215;-79
2021/12/10 08:34:41;;;;;;;5.95;2.45;;;;;;;;;;5074767;28;20322;-81
2021/12/10 08:37:07;;;;;;;10.70;1.92;;;;;;;;;;5073565;28;20299;-80
2021/12/10 08:39:34;;;;;;;7.00;2.58;;;;;;;;;;5074393;28;20191;-83
2021/12/10 08:42:00;;;;;;;12.15;3.05;;;;;;;;;;5056462;28;20196;-82
2021/12/10 08:44:26;;;;;;;3.35;2.75;;;;;;;;;;5057925;28;20181;-81
2021/12/10 08:46:52;;;;;;;8.93;2.78;;;;;;;;;;5075962;28;20173;-82
2021/12/10 08:49:18;;;;;;;9.55;2.63;;;;;;;;;;5057630;28;20172;-81
2021/12/10 08:51:47;;;;;;;7.53;4.32;;;;;;;;;;5075607;28;20541;-80
2021/12/10 08:54:15;;;;;;;7.95;2.50;;;;;;;;;;5075983;28;20655;-79
2021/12/10 08:56:42;;;;;;;10.38;2.55;;;;;;;;;;5075941;28;20231;-80
2021/12/10 08:59:08;;;;;;;6.75;2.25;;;;;;;;;;5075829;28;20169;-81
2021/12/10 09:01:36;;;;;;;9.00;2.80;;;;;;;;;;5057508;28;20193;-80
2021/12/10 09:04:04;;;;;;;6.40;3.15;;;;;;;;;;5075866;28;20172;-80
2021/12/10 09:06:31;;;;;;;5.63;2.30;;;;;;;;;;5075786;28;20172;-81
2021/12/10 09:08:57;;;;;;;7.90;2.80;;;;;;;;;;5075450;28;20233;-78
2021/12/10 09:11:24;;;;;;;10.48;3.28;;;;;;;;;;5056306;28;20193;-80
2021/12/10 09:13:50;;;;;;;11.75;2.92;;;;;;;;;;5075320;28;20174;-80
2021/12/10 09:16:23;;;;;;;5.75;2.90;;;;;;;;;;5075279;28;20174;-78
2021/12/10 09:18:50;;;;;;;4.18;2.22;;;;;;;;;;5075230;28;20267;-80
2021/12/10 09:21:16;;;;;;;4.72;2.30;;;;;;;;;;5074920;28;20195;-80
2021/12/10 09:23:42;;;;;;;3.95;2.25;;;;;;;;;;5075214;28;20592;-79
2021/12/10 09:26:10;;;;;;;9.07;2.40;;;;;;;;;;5075342;28;20544;-81
2021/12/10 09:28:38;;;;;;;6.07;2.65;;;;;;;;;;5075061;28;20178;-82
2021/12/10 09:31:05;;;;;;;5.40;2.55;;;;;;;;;;5074658;28;20262;-79
2021/12/10 09:33:31;;;;;;;5.45;2.35;;;;;;;;;;5075154;28;20255;-78
2021/12/10 09:35:57;;;;;;;3.78;3.05;;;;;;;;;;5057141;28;20227;-79
2021/12/10 09:38:24;;;;;;;5.00;2.33;;;;;;;;;;5074827;28;20207;-78
2021/12/10 09:40:52;;;;;;;5.97;2.10;;;;;;;;;;5074586;28;20184;-79
2021/12/10 09:43:18;;;;;;;4.35;2.45;;;;;;;;;;5074990;28;20251;-79
2021/12/10 09:45:45;;;;;;;4.07;2.38;;;;;;;;;;5074654;28;20230;-79
2021/12/10 09:48:13;;;;;;;4.78;2.45;;;;;;;;;;5074977;28;20219;-79
2021/12/10 09:50:46;;;;;;;6.10;2.90;;;;;;;;;;5074250;28;20200;-77
2021/12/10 09:53:12;;;;;;;7.10;2.70;;;;;;;;;;5056893;28;20188;-79
2021/12/10 09:55:38;;;;;;;8.18;2.80;;;;;;;;;;5074715;28;20610;-78
2021/12/10 09:58:05;;;;;;;10.85;2.92;;;;;;;;;;5074542;28;20665;-79
2021/12/10 10:00:38;;;;;;;3.92;2.50;;;;;;;;;;5079405;28;20616;-80
2021/12/10 10:03:05;;;;;;;4.82;2.90;;;;;;;;;;5079870;28;20231;-79
2021/12/10 10:05:32;;;;;;;6.03;2.60;;;;;;;;;;5074307;28;20184;-80
2021/12/10 10:07:59;;;;;;;6.40;2.92;;;;;;;;;;5074208;28;20215;-79
2021/12/10 10:10:26;;;;;;;7.57;2.85;;;;;;;;;;5072396;28;20215;-78
2021/12/10 10:12:55;;;;;;;4.15;3.10;;;;;;;;;;5074169;28;20238;-80
2021/12/10 10:15:24;;;;;;;5.25;2.90;;;;;;;;;;5074066;28;20196;-79
2021/12/10 10:17:50;;;;;;;5.38;2.55;;;;;;;;;;5073881;28;20199;-78
2021/12/10 10:20:17;;;;;;;6.18;3.05;;;;;;;;;;5073803;28;20196;-79
2021/12/10 10:22:46;;;;;;;5.15;2.83;;;;;;;;;;5071710;28;20704;-80
2021/12/10 10:25:13;;;;;;;5.93;2.70;;;;;;;;;;5073962;28;20606;-80
2021/12/10 10:27:41;;;;;;;4.47;3.08;;;;;;;;;;5074082;28;20188;-78
2021/12/10 10:30:07;;;;;;;6.70;2.90;;;;;;;;;;5073498;28;20180;-78
2021/12/10 10:32:34;;;;;;;7.22;3.30;;;;;;;;;;5073558;28;20192;-78
2021/12/10 10:35:10;;;;;;;6.57;3.10;;;;;;;;;;5072339;28;20579;-78
2021/12/10 10:37:36;;;;;;;9.48;3.70;;;;;;;;;;5081801;28;20208;-79
2021/12/10 10:40:04;;;;;;;10.80;2.60;;;;;;;;;;5087220;28;20513;-77
2021/12/10 10:42:31;;;;;;;6.50;2.40;;;;;;;;;;5093810;28;20676;-77
2021/12/10 10:45:02;;;;;;;6.57;3.05;;;;;;;;;;5094048;28;20172;-79
2021/12/10 10:47:29;;;;;;;3.80;2.80;;;;;;;;;;5093968;28;20180;-78
2021/12/10 10:49:57;;;;;;;8.65;2.90;;;;;;;;;;5093285;28;20176;-78
2021/12/10 10:52:29;;;;;;;4.90;2.63;;;;;;;;;;5093656;28;20186;-78
2021/12/10 10:55:01;;;;;;;7.53;2.95;;;;;;;;;;5093782;28;20172;-79
2021/12/10 10:57:31;;;;;;;7.20;3.00;;;;;;;;;;5093644;28;20669;-78
2021/12/10 11:00:02;;;;;;;7.35;3.88;;;;;;;;;;5093239;28;20538;-78
2021/12/10 11:02:37;;;;;;;8.88;3.00;;;;;;;;;;5093514;28;20160;-79
2021/12/10 11:05:10;;;;;;;4.63;3.00;;;;;;;;;;5093344;28;20246;-79
2021/12/10 11:07:43;;;;;;;7.43;2.47;;;;;;;;;;5076867;28;20195;-78
2021/12/10 11:10:09;;;;;;;5.97;3.28;;;;;;;;;;5072821;28;20173;-78
2021/12/10 11:12:37;;;;;;;5.90;2.80;;;;;;;;;;5073239;28;20544;-78
2021/12/10 11:15:08;;;;;;;6.63;3.05;;;;;;;;;;5073075;28;20411;-78
2021/12/10 11:17:39;;;;;;;4.90;2.95;;;;;;;;;;5073065;28;20200;-78
2021/12/10 11:20:16;;;;;;;7.13;2.97;;;;;;;;;;5072880;28;20252;-79
2021/12/10 11:22:49;;;;;;;7.93;3.63;;;;;;;;;;5072985;28;20263;-78
2021/12/10 11:25:18;;;;;;;6.22;2.83;;;;;;;;;;5073190;28;20643;-78
2021/12/10 11:27:44;;;;;;;4.97;2.70;;;;;;;;;;5073027;28;20177;-79
2021/12/10 11:30:13;;;;;;;5.50;3.17;;;;;;;;;;5071274;28;20180;-79
2021/12/10 11:32:41;;;;;;;5.13;2.67;;;;;;;;;;5072860;28;20667;-78
2021/12/10 11:35:12;;;;;;;5.30;2.83;;;;;;;;;;5076357;28;20268;-79
2021/12/10 11:37:41;;;;;;;7.32;2.67;;;;;;;;;;5077209;28;20228;-78
2021/12/10 11:40:27;;;;;;;7.82;3.22;;;;;;;;;;5076828;28;20520;-78
2021/12/10 11:43:02;;;;;;;6.28;3.60;;;;;;;;;;5075744;28;20584;-78
2021/12/10 11:45:33;;;;;;;6.18;2.45;;;;;;;;;;5077233;28;20253;-78
2021/12/10 11:48:07;;;;;;;4.78;2.70;;;;;;;;;;5076939;28;20172;-78
2021/12/10 11:50:34;;;;;;;7.43;3.53;;;;;;;;;;5076486;28;20204;-79
2021/12/10 11:53:05;;;;;;;4.07;2.45;;;;;;;;;;5076937;28;20265;-80
2021/12/10 11:55:33;;;;;;;6.05;2.92;;;;;;;;;;5076808;28;20176;-79
2021/12/10 11:57:59;;;;;;;5.30;2.30;;;;;;;;;;5076716;28;20258;-79
2021/12/10 12:00:28;;;;;;;4.88;2.85;;;;;;;;;;5076392;28;20223;-78
2021/12/10 12:02:53;;;;;;;3.65;2.30;;;;;;;;;;5076498;28;20169;-79
2021/12/10 12:05:22;;;;;;;4.07;2.93;;;;;;;;;;5076614;28;20506;-78
2021/12/10 12:07:55;;;;;;;6.47;2.75;;;;;;;;;;5076750;28;20411;-78
2021/12/10 12:10:37;;;;;;;7.40;2.60;;;;;;;;;;5074709;28;20262;-78
2021/12/10 12:15:43;;;;;;;10.63;3.40;;;;;;;;;;5076546;28;20668;-79
2021/12/10 12:18:14;;;;;;;9.60;3.93;;;;;;;;;;5076477;28;20198;-79
2021/12/10 12:20:42;;;;;;;4.57;2.70;;;;;;;;;;5075971;28;20430;-79
2021/12/10 12:25:58;;;;;;;7.78;2.95;;;;;;;;;;5076293;28;20187;-79
2021/12/10 12:28:26;;;;;;;5.95;2.95;;;;;;;;;;5076147;28;20200;-79
2021/12/10 12:30:58;;;;;;;4.07;2.88;;;;;;;;;;5075515;28;20185;-78
2021/12/10 12:33:25;;;;;;;3.50;2.03;;;;;;;;;;5074860;28;20657;-78
2021/12/10 12:35:53;;;;;;;4.45;3.47;;;;;;;;;;5075943;28;20235;-79
2021/12/10 12:38:22;;;;;;;6.95;2.55;;;;;;;;;;5086177;28;20200;-78
2021/12/10 12:41:04;;;;;;;6.22;2.90;;;;;;;;;;5095827;28;20184;-79
2021/12/10 12:43:30;;;;;;;4.75;3.10;;;;;;;;;;5096397;28;20305;-78
2021/12/10 12:46:06;;;;;;;4.22;2.88;;;;;;;;;;5095204;28;20625;-79
2021/12/10 12:48:33;;;;;;;5.45;3.55;;;;;;;;;;5078208;28;20172;-79
2021/12/10 12:51:02;;;;;;;5.25;3.45;;;;;;;;;;5095786;28;20288;-79
2021/12/10 12:53:33;;;;;;;5.97;3.08;;;;;;;;;;5096022;28;20241;-79
2021/12/10 12:56:10;;;;;;;4.38;3.05;;;;;;;;;;5096191;28;20532;-78
2021/12/10 12:58:39;;;;;;;4.35;2.85;;;;;;;;;;5095884;28;20550;-78
2021/12/10 13:01:30;;;;;;;4.07;2.90;;;;;;;;;;5095291;28;20241;-79
2021/12/10 13:04:02;;;;;;;7.28;3.17;;;;;;;;;;5077976;28;20176;-80
2021/12/10 13:06:37;;;;;;;4.28;2.55;;;;;;;;;;5095759;28;20586;-79
2021/12/10 13:09:07;;;;;;;7.28;2.72;;;;;;;;;;5095689;28;20171;-79
2021/12/10 13:12:17;;;;;;;5.03;3.42;;;;;;;;;;5091859;28;20314;-79
2021/12/10 13:14:50;;;;;;;4.40;3.15;;;;;;;;;;5073887;28;20192;-79
2021/12/10 13:17:19;;;;;;;3.92;3.30;;;;;;;;;;5085385;28;20193;-80
2021/12/10 13:19:45;;;;;;;9.07;4.70;;;;;;;;;;5065580;28;20200;-79
2021/12/10 13:22:14;;;;;;;4.80;3.78;;;;;;;;;;5087827;28;20263;-80
2021/12/10 13:24:41;;;;;;;5.05;3.65;;;;;;;;;;5085804;28;20190;-79
2021/12/10 13:27:09;;;;;;;8.05;3.80;;;;;;;;;;5084084;28;20259;-79
2021/12/10 13:29:35;;;;;;;6.90;3.40;;;;;;;;;;5083811;28;20192;-79
2021/12/10 13:32:04;;;;;;;4.35;3.00;;;;;;;;;;5085819;28;20299;-78
2021/12/10 13:34:30;;;;;;;4.50;2.72;;;;;;;;;;5074483;28;20173;-79
2021/12/10 13:36:57;;;;;;;4.47;3.40;;;;;;;;;;5074098;28;20338;-78
2021/12/10 13:39:23;;;;;;;10.45;3.05;;;;;;;;;;5091885;28;20637;-79
2021/12/10 13:41:49;;;;;;;4.00;2.80;;;;;;;;;;5094903;28;20309;-80
2021/12/10 13:44:31;;;;;;;5.45;3.03;;;;;;;;;;5095093;28;20215;-79
2021/12/10 13:47:03;;;;;;;4.82;2.80;;;;;;;;;;5077059;28;20212;-79
2021/12/10 13:49:48;;;;;;;7.00;3.80;;;;;;;;;;5076604;28;20178;-78
2021/12/10 13:52:14;;;;;;;4.60;3.67;;;;;;;;;;5094850;28;20192;-80
2021/12/10 13:54:52;;;;;;;12.27;4.20;;;;;;;;;;5076630;28;20534;-80
2021/12/10 13:57:18;;;;;;;7.70;4.05;;;;;;;;;;5094285;28;20201;-80
2021/12/10 13:59:44;;;;;;;10.43;3.95;;;;;;;;;;5094080;28;20251;-80
2021/12/10 14:02:11;;;;;;;5.07;3.63;;;;;;;;;;5094405;28;20235;-81
2021/12/10 14:04:39;;;;;;;5.53;3.10;;;;;;;;;;5094528;28;20411;-81
2021/12/10 14:07:07;;;;;;;10.60;4.70;;;;;;;;;;5094649;28;20175;-80
2021/12/10 14:09:51;;;;;;;12.50;4.55;;;;;;;;;;5075878;28;20273;-79
2021/12/10 14:12:27;;;;;;;9.38;4.35;;;;;;;;;;5094624;28;20183;-81
2021/12/10 14:15:02;;;;;;;8.38;4.15;;;;;;;;;;5094576;28;20223;-80
2021/12/10 14:17:30;;;;;;;8.32;4.80;;;;;;;;;;5094311;28;20223;-80
2021/12/10 14:19:57;;;;;;;10.18;4.88;;;;;;;;;;5093949;28;20504;-79
2021/12/10 14:22:45;;;;;;;10.75;5.50;;;;;;;;;;5094217;28;20167;-80
2021/12/10 14:25:21;;;;;;;11.32;5.80;;;;;;;;;;5094595;28;20240;-82
2021/12/10 14:27:52;;;;;;;13.32;5.85;;;;;;;;;;5094179;28;20189;-82
2021/12/10 14:30:18;;;;;;;9.90;5.90;;;;;;;;;;5093765;28;20669;-82
2021/12/10 14:32:56;;;;;;;11.63;6.32;;;;;;;;;;5094131;28;20195;-81
2021/12/10 14:35:24;;;;;;;5.93;3.92;;;;;;;;;;5094253;28;20212;-81
2021/12/10 14:37:59;;;;;;;6.63;4.85;;;;;;;;;;5094106;28;20195;-81
2021/12/10 14:40:29;;;;;;;8.35;5.03;;;;;;;;;;5093735;28;20329;-81
2021/12/10 14:43:08;;;;;;;12.55;6.35;;;;;;;;;;5094016;28;20538;-82
2021/12/10 14:45:54;;;;;;;9.52;5.38;;;;;;;;;;5094006;28;20548;-83
2021/12/10 14:48:20;;;;;;;7.70;4.80;;;;;;;;;;5093986;28;20317;-82
2021/12/10 14:51:05;;;;;;;8.68;4.63;;;;;;;;;;5093544;28;20657;-81
2021/12/10 14:53:37;;;;;;;4.55;3.90;;;;;;;;;;5093803;28;20176;-82
2021/12/10 14:56:30;;;;;;;6.70;4.60;;;;;;;;;;5093913;28;20183;-81
2021/12/10 14:59:15;;;;;;;6.70;3.47;;;;;;;;;;5069822;28;20206;-81
2021/12/10 15:02:00;;;;;;;6.63;3.85;;;;;;;;;;5073392;28;20215;-81